createdAt,value
2018-01-29T00:00:41.631Z,8.3
2018-01-29T00:01:41.940Z,8.3
2018-01-29T00:02:41.844Z,8.3
2018-01-29T00:03:41.552Z,8.3
2018-01-29T00:04:41.250Z,8.3
2018-01-29T00:05:41.690Z,8.3
2018-01-29T00:06:41.624Z,8.3
2018-01-29T00:07:41.596Z,8.2
2018-01-29T00:08:40.965Z,8.3
2018-01-29T00:09:41.401Z,8.2
2018-01-29T00:10:41.193Z,8.3
2018-01-29T00:11:40.865Z,8.3
2018-01-29T00:12:41.031Z,8.3
2018-01-29T00:13:40.706Z,8.3
2018-01-29T00:14:40.763Z,8.3
2018-01-29T00:15:41.000Z,8.3
2018-01-29T00:16:40.630Z,8.3
2018-01-29T00:17:40.740Z,8.3
2018-01-29T00:18:40.455Z,8.3
2018-01-29T00:19:40.404Z,8.3
2018-01-29T00:20:40.507Z,8.2
2018-01-29T00:21:40.748Z,8.2
2018-01-29T00:22:40.634Z,8.2
2018-01-29T00:23:40.140Z,8.3
2018-01-29T00:24:39.912Z,8.2
2018-01-29T00:25:40.106Z,8.3
2018-01-29T00:26:40.179Z,8.2
2018-01-29T00:27:40.342Z,8.2
2018-01-29T00:28:39.812Z,8.2
2018-01-29T00:29:39.731Z,8.2
2018-01-29T00:30:39.634Z,8.2
2018-01-29T00:31:39.313Z,8.2
2018-01-29T00:32:39.413Z,8.1
2018-01-29T00:33:39.693Z,8.2
2018-01-29T00:34:39.470Z,8.2
2018-01-29T00:35:39.108Z,8.2
2018-01-29T00:36:39.484Z,8.2
2018-01-29T00:37:39.140Z,8.2
2018-01-29T00:38:39.334Z,8.2
2018-01-29T00:39:39.043Z,8.1
2018-01-29T00:40:39.100Z,8.2
2018-01-29T00:41:38.804Z,8.2
2018-01-29T00:42:39.384Z,8.2
2018-01-29T00:43:38.762Z,8.2
2018-01-29T00:44:38.700Z,8.2
2018-01-29T00:45:38.622Z,8.2
2018-01-29T00:46:38.766Z,8.2
2018-01-29T00:47:38.567Z,8.2
2018-01-29T00:48:38.419Z,8.2
2018-01-29T00:49:38.529Z,8.3
2018-01-29T00:50:38.512Z,8.3
2018-01-29T00:51:38.187Z,8.2
2018-01-29T00:52:38.097Z,8.3
2018-01-29T00:53:38.151Z,8.3
2018-01-29T00:54:38.239Z,8.3
2018-01-29T00:55:38.157Z,8.3
2018-01-29T00:56:37.895Z,8.3
2018-01-29T00:57:38.088Z,8.3
2018-01-29T00:58:37.915Z,8.3
2018-01-29T00:59:37.661Z,8.3
2018-01-29T01:00:37.828Z,8.3
2018-01-29T01:01:37.387Z,8.3
2018-01-29T01:02:37.350Z,8.3
2018-01-29T01:03:37.648Z,8.3
2018-01-29T01:04:37.594Z,8.3
2018-01-29T01:05:37.349Z,8.3
2018-01-29T01:06:37.268Z,8.3
2018-01-29T01:07:36.984Z,8.3
2018-01-29T01:08:37.272Z,8.3
2018-01-29T01:09:36.967Z,8.3
2018-01-29T01:10:36.767Z,8.2
2018-01-29T01:11:36.763Z,8.3
2018-01-29T01:12:37.192Z,8.2
2018-01-29T01:13:36.615Z,8.2
2018-01-29T01:14:36.977Z,8.2
2018-01-29T01:15:36.435Z,8.2
2018-01-29T01:16:36.490Z,8.2
2018-01-29T01:17:36.194Z,8.2
2018-01-29T01:18:36.523Z,8.2
2018-01-29T01:19:36.629Z,8.2
2018-01-29T01:20:36.099Z,8.2
2018-01-29T01:21:36.415Z,8.2
2018-01-29T01:22:36.452Z,8.2
2018-01-29T01:23:35.967Z,8.2
2018-01-29T01:24:36.050Z,8.2
2018-01-29T01:25:35.753Z,8.2
2018-01-29T01:26:35.893Z,8.2
2018-01-29T01:27:35.616Z,8.2
2018-01-29T01:28:35.693Z,8.2
2018-01-29T01:29:35.597Z,8.3
2018-01-29T01:30:35.751Z,8.3
2018-01-29T01:31:35.373Z,8.3
2018-01-29T01:32:35.377Z,8.2
2018-01-29T01:33:35.310Z,8.2
2018-01-29T01:34:35.764Z,8.2
2018-01-29T01:35:35.197Z,8.2
2018-01-29T01:36:35.420Z,8.2
2018-01-29T01:37:35.078Z,8.2
2018-01-29T01:38:34.956Z,8.2
2018-01-29T01:39:34.997Z,8.1
2018-01-29T01:40:35.347Z,8.1
2018-01-29T01:41:34.755Z,8.1
2018-01-29T01:42:34.394Z,8.1
2018-01-29T01:43:34.712Z,8.1
2018-01-29T01:44:34.392Z,8.1
2018-01-29T01:45:34.495Z,8.1
2018-01-29T01:46:34.671Z,8.1
2018-01-29T01:47:34.332Z,8.1
2018-01-29T01:48:34.171Z,8.1
2018-01-29T01:49:34.096Z,8.1
2018-01-29T01:50:34.032Z,8.1
2018-01-29T01:51:33.925Z,8.1
2018-01-29T01:52:34.097Z,8.1
2018-01-29T01:53:33.839Z,8.1
2018-01-29T01:54:33.896Z,8.1
2018-01-29T01:55:33.795Z,8.1
2018-01-29T01:56:34.355Z,8.1
2018-01-29T01:57:34.153Z,8.1
2018-01-29T01:58:33.966Z,8.1
2018-01-29T01:59:33.721Z,8.1
2018-01-29T02:00:33.500Z,8.1
2018-01-29T02:01:33.464Z,8.1
2018-01-29T02:02:33.252Z,8.1
2018-01-29T02:03:33.122Z,8.1
2018-01-29T02:04:33.145Z,8.1
2018-01-29T02:05:33.196Z,8.1
2018-01-29T02:06:33.112Z,8.1
2018-01-29T02:07:33.383Z,8.1
2018-01-29T02:08:33.092Z,8.1
2018-01-29T02:09:33.001Z,8.1
2018-01-29T02:10:33.440Z,8.1
2018-01-29T02:11:32.783Z,8.1
2018-01-29T02:12:32.471Z,8.1
2018-01-29T02:13:32.827Z,8.1
2018-01-29T02:14:32.361Z,8.1
2018-01-29T02:15:32.687Z,8.1
2018-01-29T02:16:32.612Z,8.2
2018-01-29T02:17:32.539Z,8.2
2018-01-29T02:18:32.055Z,8.1
2018-01-29T02:19:32.585Z,8.2
2018-01-29T02:20:32.439Z,8.2
2018-01-29T02:21:32.103Z,8.2
2018-01-29T02:22:32.122Z,8.2
2018-01-29T02:23:31.964Z,8.2
2018-01-29T02:24:32.312Z,8.2
2018-01-29T02:25:31.739Z,8.2
2018-01-29T02:26:31.739Z,8.2
2018-01-29T02:27:31.989Z,8.1
2018-01-29T02:28:31.579Z,8.1
2018-01-29T02:29:31.785Z,8.1
2018-01-29T02:30:31.455Z,8.1
2018-01-29T02:31:31.251Z,8.1
2018-01-29T02:32:31.491Z,8.1
2018-01-29T02:33:31.265Z,8.1
2018-01-29T02:34:31.189Z,8.1
2018-01-29T02:35:31.223Z,8.1
2018-01-29T02:36:30.792Z,8.1
2018-01-29T02:37:30.766Z,8.1
2018-01-29T02:38:31.011Z,8.1
2018-01-29T02:39:30.608Z,8.1
2018-01-29T02:40:30.841Z,8.1
2018-01-29T02:41:31.112Z,8.1
2018-01-29T02:42:30.323Z,8.1
2018-01-29T02:43:30.460Z,8
2018-01-29T02:44:30.247Z,8
2018-01-29T02:45:30.538Z,8
2018-01-29T02:46:30.393Z,8
2018-01-29T02:47:30.259Z,8
2018-01-29T02:48:30.043Z,8
2018-01-29T02:49:29.879Z,8
2018-01-29T02:50:29.783Z,8
2018-01-29T02:51:30.426Z,8
2018-01-29T02:52:29.741Z,8
2018-01-29T02:53:29.855Z,8
2018-01-29T02:54:29.453Z,8
2018-01-29T02:55:29.392Z,8
2018-01-29T02:56:29.333Z,8
2018-01-29T02:57:29.413Z,8
2018-01-29T02:58:29.171Z,8
2018-01-29T02:59:29.811Z,8
2018-01-29T03:00:29.411Z,8
2018-01-29T03:01:28.821Z,8
2018-01-29T03:02:29.072Z,8.1
2018-01-29T03:03:29.058Z,8
2018-01-29T03:04:28.922Z,8.1
2018-01-29T03:05:28.657Z,8.1
2018-01-29T03:06:28.484Z,8.1
2018-01-29T03:07:28.760Z,8.1
2018-01-29T03:08:28.390Z,8.1
2018-01-29T03:09:28.515Z,8.1
2018-01-29T03:10:28.521Z,8.1
2018-01-29T03:11:28.097Z,8.1
2018-01-29T03:12:28.459Z,8.1
2018-01-29T03:13:28.264Z,8.1
2018-01-29T03:14:28.370Z,8.1
2018-01-29T03:15:28.277Z,8.2
2018-01-29T03:16:27.754Z,8.2
2018-01-29T03:17:27.750Z,8.1
2018-01-29T03:18:27.706Z,8.1
2018-01-29T03:19:27.413Z,8.2
2018-01-29T03:20:27.638Z,8.1
2018-01-29T03:21:27.874Z,8.1
2018-01-29T03:22:27.597Z,8.1
2018-01-29T03:23:27.409Z,8.1
2018-01-29T03:24:27.247Z,8.1
2018-01-29T03:25:27.396Z,8.1
2018-01-29T03:26:27.076Z,8.1
2018-01-29T03:27:27.000Z,8.1
2018-01-29T03:28:26.927Z,8.1
2018-01-29T03:29:26.815Z,8.2
2018-01-29T03:30:26.513Z,8.1
2018-01-29T03:31:26.967Z,8.1
2018-01-29T03:32:27.058Z,8.2
2018-01-29T03:33:26.942Z,8.2
2018-01-29T03:34:26.270Z,8.1
2018-01-29T03:35:26.583Z,8.1
2018-01-29T03:36:26.309Z,8.2
2018-01-29T03:37:26.548Z,8.2
2018-01-29T03:38:26.336Z,8.1
2018-01-29T03:39:26.269Z,8.2
2018-01-29T03:40:26.078Z,8.1
2018-01-29T03:41:26.025Z,8.1
2018-01-29T03:42:25.920Z,8.2
2018-01-29T03:43:26.245Z,8.1
2018-01-29T03:44:26.290Z,8.1
2018-01-29T03:45:25.527Z,8.1
2018-01-29T03:46:25.619Z,8.1
2018-01-29T03:47:25.425Z,8.1
2018-01-29T03:48:25.595Z,8.2
2018-01-29T03:49:25.563Z,8.1
2018-01-29T03:50:24.911Z,8.1
2018-01-29T03:51:25.110Z,8.1
2018-01-29T03:52:25.034Z,8.1
2018-01-29T03:53:25.256Z,8.1
2018-01-29T03:54:24.683Z,8.1
2018-01-29T03:55:24.898Z,8.1
2018-01-29T03:56:24.858Z,8.1
2018-01-29T03:57:24.650Z,8.1
2018-01-29T03:58:24.800Z,8.1
2018-01-29T03:59:24.428Z,8.1
2018-01-29T04:00:24.276Z,8.1
2018-01-29T04:01:24.391Z,8.1
2018-01-29T04:02:24.424Z,8.1
2018-01-29T04:03:24.492Z,8.1
2018-01-29T04:04:24.081Z,8.1
2018-01-29T04:05:24.060Z,8.1
2018-01-29T04:06:24.136Z,8.1
2018-01-29T04:07:23.789Z,8.1
2018-01-29T04:08:23.629Z,8.1
2018-01-29T04:09:23.692Z,8.1
2018-01-29T04:10:23.728Z,8.1
2018-01-29T04:11:23.535Z,8.1
2018-01-29T04:12:23.334Z,8.2
2018-01-29T04:13:23.275Z,8.2
2018-01-29T04:14:23.511Z,8.2
2018-01-29T04:15:23.284Z,8.2
2018-01-29T04:16:23.222Z,8.3
2018-01-29T04:17:22.954Z,8.3
2018-01-29T04:18:23.423Z,8.3
2018-01-29T04:19:23.120Z,8.3
2018-01-29T04:20:23.004Z,8.3
2018-01-29T04:21:22.636Z,8.3
2018-01-29T04:22:23.446Z,8.3
2018-01-29T04:23:22.745Z,8.3
2018-01-29T04:24:22.708Z,8.4
2018-01-29T04:25:22.307Z,8.3
2018-01-29T04:26:22.974Z,8.4
2018-01-29T04:27:22.461Z,8.4
2018-01-29T04:28:22.615Z,8.4
2018-01-29T04:29:22.177Z,8.4
2018-01-29T04:30:22.152Z,8.4
2018-01-29T04:31:22.074Z,8.4
2018-01-29T04:32:22.067Z,8.4
2018-01-29T04:33:22.168Z,8.4
2018-01-29T04:34:21.564Z,8.4
2018-01-29T04:35:21.823Z,8.4
2018-01-29T04:36:21.975Z,8.4
2018-01-29T04:37:21.191Z,8.4
2018-01-29T04:38:21.504Z,8.4
2018-01-29T04:39:21.420Z,8.4
2018-01-29T04:40:21.443Z,8.4
2018-01-29T04:41:20.963Z,8.4
2018-01-29T04:42:21.103Z,8.4
2018-01-29T04:43:21.496Z,8.3
2018-01-29T04:44:21.056Z,8.4
2018-01-29T04:45:21.071Z,8.4
2018-01-29T04:46:20.683Z,8.4
2018-01-29T04:47:20.666Z,8.3
2018-01-29T04:48:20.824Z,8.3
2018-01-29T04:49:20.738Z,8.3
2018-01-29T04:50:20.505Z,8.3
2018-01-29T04:51:20.560Z,8.3
2018-01-29T04:52:20.316Z,8.3
2018-01-29T04:53:20.737Z,8.3
2018-01-29T04:54:20.443Z,8.3
2018-01-29T04:55:20.349Z,8.3
2018-01-29T04:56:19.933Z,8.3
2018-01-29T04:57:20.198Z,8.2
2018-01-29T04:58:19.926Z,8.2
2018-01-29T04:59:19.888Z,8.2
2018-01-29T05:00:19.926Z,8.2
2018-01-29T05:01:19.569Z,8.1
2018-01-29T05:02:19.522Z,8.1
2018-01-29T05:03:19.449Z,8.1
2018-01-29T05:04:19.883Z,8
2018-01-29T05:05:19.652Z,8
2018-01-29T05:06:19.228Z,8
2018-01-29T05:07:19.407Z,7.9
2018-01-29T05:08:19.016Z,7.9
2018-01-29T05:09:19.077Z,7.9
2018-01-29T05:10:19.028Z,7.9
2018-01-29T05:11:18.879Z,7.9
2018-01-29T05:12:18.776Z,7.9
2018-01-29T05:13:19.283Z,7.9
2018-01-29T05:14:19.063Z,7.8
2018-01-29T05:15:18.912Z,7.8
2018-01-29T05:16:18.728Z,7.8
2018-01-29T05:17:18.620Z,7.8
2018-01-29T05:18:18.264Z,7.8
2018-01-29T05:19:18.288Z,7.8
2018-01-29T05:20:18.402Z,7.8
2018-01-29T05:21:18.221Z,7.7
2018-01-29T05:22:17.849Z,7.7
2018-01-29T05:23:17.682Z,7.7
2018-01-29T05:24:18.332Z,7.7
2018-01-29T05:25:17.622Z,7.6
2018-01-29T05:26:17.904Z,7.6
2018-01-29T05:27:17.862Z,7.6
2018-01-29T05:28:17.373Z,7.6
2018-01-29T05:29:17.536Z,7.6
2018-01-29T05:30:17.590Z,7.5
2018-01-29T05:31:17.544Z,7.5
2018-01-29T05:32:17.295Z,7.5
2018-01-29T05:33:16.868Z,7.5
2018-01-29T05:34:17.005Z,7.4
2018-01-29T05:35:16.933Z,7.5
2018-01-29T05:36:16.961Z,7.4
2018-01-29T05:37:16.627Z,7.4
2018-01-29T05:38:16.531Z,7.4
2018-01-29T05:39:16.492Z,7.4
2018-01-29T05:40:16.621Z,7.4
2018-01-29T05:41:16.942Z,7.1
2018-01-29T05:42:16.293Z,6.4
2018-01-29T05:43:16.572Z,6
2018-01-29T05:44:16.159Z,5.6
2018-01-29T05:45:16.042Z,5.3
2018-01-29T05:46:15.963Z,5.2
2018-01-29T05:47:16.288Z,5
2018-01-29T05:48:16.062Z,4.9
2018-01-29T05:49:15.962Z,4.8
2018-01-29T05:50:15.665Z,4.6
2018-01-29T05:51:15.826Z,4.5
2018-01-29T05:52:15.386Z,4.4
2018-01-29T05:53:15.530Z,4.3
2018-01-29T05:54:15.690Z,4.3
2018-01-29T05:55:15.615Z,4.2
2018-01-29T05:56:15.388Z,4.3
2018-01-29T05:57:15.214Z,4.3
2018-01-29T05:58:15.386Z,4.2
2018-01-29T05:59:15.468Z,4.2
2018-01-29T06:00:15.066Z,4.2
2018-01-29T06:01:15.111Z,4.1
2018-01-29T06:02:14.965Z,4
2018-01-29T06:03:14.846Z,4.1
2018-01-29T06:04:15.315Z,4.1
2018-01-29T06:05:15.042Z,4.1
2018-01-29T06:06:14.227Z,4.1
2018-01-29T06:07:14.743Z,4.2
2018-01-29T06:08:14.456Z,4.3
2018-01-29T06:09:14.380Z,4.3
2018-01-29T06:10:14.228Z,4.4
2018-01-29T06:11:14.038Z,4.5
2018-01-29T06:12:14.153Z,4.6
2018-01-29T06:13:13.851Z,4.7
2018-01-29T06:14:14.188Z,4.8
2018-01-29T06:15:13.904Z,4.9
2018-01-29T06:16:14.177Z,5.1
2018-01-29T06:17:13.533Z,5.3
2018-01-29T06:18:13.630Z,5.4
2018-01-29T06:19:13.308Z,5.4
2018-01-29T06:20:13.288Z,5.4
2018-01-29T06:21:13.440Z,5.7
2018-01-29T06:22:13.743Z,5.9
2018-01-29T06:23:12.892Z,5.9
2018-01-29T06:24:13.499Z,6.1
2018-01-29T06:25:13.307Z,6.1
2018-01-29T06:26:13.045Z,6.3
2018-01-29T06:27:13.256Z,6.3
2018-01-29T06:28:12.557Z,6.2
2018-01-29T06:29:13.453Z,6.3
2018-01-29T06:30:12.806Z,6.4
2018-01-29T06:31:12.591Z,6.6
2018-01-29T06:32:12.358Z,6.8
2018-01-29T06:33:12.665Z,6.9
2018-01-29T06:34:12.645Z,6.9
2018-01-29T06:35:12.634Z,6.9
2018-01-29T06:36:12.214Z,7.1
2018-01-29T06:37:12.197Z,7.3
2018-01-29T06:38:11.891Z,7.5
2018-01-29T06:39:12.018Z,7.8
2018-01-29T06:40:12.431Z,8
2018-01-29T06:41:11.591Z,8.2
2018-01-29T06:42:12.577Z,8.5
2018-01-29T06:43:11.841Z,8.9
2018-01-29T06:44:11.313Z,9.3
2018-01-29T06:45:11.442Z,9.6
2018-01-29T06:46:11.760Z,10.1
2018-01-29T06:47:11.623Z,10.5
2018-01-29T06:48:11.370Z,10.9
2018-01-29T06:49:11.388Z,11.3
2018-01-29T06:50:11.099Z,11.7
2018-01-29T06:51:11.256Z,12
2018-01-29T06:52:10.906Z,12.2
2018-01-29T06:53:10.875Z,12.5
2018-01-29T06:54:11.403Z,12.9
2018-01-29T06:55:10.669Z,13.3
2018-01-29T06:56:10.898Z,13.6
2018-01-29T06:57:10.497Z,13.9
2018-01-29T06:58:10.870Z,14.3
2018-01-29T06:59:10.454Z,14.6
2018-01-29T07:00:10.139Z,14.9
2018-01-29T07:01:10.429Z,15.3
2018-01-29T07:02:09.826Z,15.4
2018-01-29T07:03:10.614Z,15.8
2018-01-29T07:04:10.118Z,16.1
2018-01-29T07:05:10.239Z,16.4
2018-01-29T07:06:09.750Z,16.5
2018-01-29T07:07:09.722Z,16.4
2018-01-29T07:08:09.736Z,16.2
2018-01-29T07:09:09.459Z,15.8
2018-01-29T07:10:09.458Z,15.3
2018-01-29T07:11:09.179Z,15.1
2018-01-29T07:12:09.499Z,15
2018-01-29T07:13:09.824Z,14.6
2018-01-29T07:14:08.947Z,14.3
2018-01-29T07:15:09.201Z,14.1
2018-01-29T07:16:09.113Z,14
2018-01-29T07:17:08.721Z,14.1
2018-01-29T07:18:09.133Z,14.2
2018-01-29T07:19:08.986Z,14.6
2018-01-29T07:20:08.742Z,14.9
2018-01-29T07:21:08.433Z,15.3
2018-01-29T07:22:08.287Z,15.6
2018-01-29T07:23:08.844Z,16.1
2018-01-29T07:24:08.677Z,16.5
2018-01-29T07:25:08.302Z,16.9
2018-01-29T07:26:08.432Z,17.1
2018-01-29T07:27:08.189Z,17.1
2018-01-29T07:28:08.371Z,17.3
2018-01-29T07:29:08.036Z,17.4
2018-01-29T07:30:08.337Z,17.3
2018-01-29T07:31:07.706Z,17.6
2018-01-29T07:32:07.764Z,17.6
2018-01-29T07:33:08.284Z,17.3
2018-01-29T07:34:07.518Z,17.3
2018-01-29T07:35:07.409Z,17.4
2018-01-29T07:36:07.435Z,17.6
2018-01-29T07:37:07.653Z,17.7
2018-01-29T07:38:07.669Z,18.1
2018-01-29T07:39:07.407Z,18.4
2018-01-29T07:40:06.825Z,18.9
2018-01-29T07:41:06.954Z,19.1
2018-01-29T07:42:07.268Z,19.6
2018-01-29T07:43:06.795Z,20.1
2018-01-29T07:44:06.951Z,20.1
2018-01-29T07:45:07.355Z,20.4
2018-01-29T07:46:06.921Z,20.6
2018-01-29T07:47:06.517Z,21.3
2018-01-29T07:48:06.623Z,21.5
2018-01-29T07:49:06.400Z,21.8
2018-01-29T07:50:06.757Z,21.9
2018-01-29T07:51:06.217Z,22.1
2018-01-29T07:52:06.591Z,22.6
2018-01-29T07:53:06.415Z,22.9
2018-01-29T07:54:06.285Z,23
2018-01-29T07:55:05.992Z,23.1
2018-01-29T07:56:06.004Z,23.6
2018-01-29T07:57:05.998Z,23.8
2018-01-29T07:58:05.873Z,24
2018-01-29T07:59:05.712Z,24
2018-01-29T08:00:05.875Z,24.3
2018-01-29T08:01:05.506Z,24.8
2018-01-29T08:02:05.679Z,24.8
2018-01-29T08:03:05.461Z,25.1
2018-01-29T08:04:05.254Z,25.4
2018-01-29T08:05:05.216Z,25.6
2018-01-29T08:06:05.491Z,25.6
2018-01-29T08:07:05.474Z,25.6
2018-01-29T08:08:05.117Z,25.5
2018-01-29T08:09:05.525Z,25.6
2018-01-29T08:10:04.931Z,25.6
2018-01-29T08:11:04.784Z,25.9
2018-01-29T08:12:04.995Z,26.3
2018-01-29T08:13:04.884Z,26.5
2018-01-29T08:14:04.790Z,26.5
2018-01-29T08:15:05.005Z,26.4
2018-01-29T08:16:04.439Z,26.4
2018-01-29T08:17:04.443Z,26.3
2018-01-29T08:18:04.330Z,26.5
2018-01-29T08:19:04.564Z,26.7
2018-01-29T08:20:04.602Z,26.9
2018-01-29T08:21:04.489Z,27.1
2018-01-29T08:22:04.332Z,27.1
2018-01-29T08:23:04.022Z,27.5
2018-01-29T08:24:04.354Z,27.6
2018-01-29T08:25:03.913Z,27.9
2018-01-29T08:26:04.036Z,28
2018-01-29T08:27:04.162Z,28
2018-01-29T08:28:04.144Z,28.2
2018-01-29T08:29:04.183Z,28.2
2018-01-29T08:30:03.471Z,28.1
2018-01-29T08:31:03.547Z,28.1
2018-01-29T08:32:03.593Z,27.9
2018-01-29T08:33:03.828Z,28
2018-01-29T08:34:03.263Z,28.1
2018-01-29T08:35:03.755Z,27.9
2018-01-29T08:36:03.142Z,27.8
2018-01-29T08:37:03.476Z,27.9
2018-01-29T08:38:03.122Z,28.1
2018-01-29T08:39:03.433Z,28.1
2018-01-29T08:40:03.254Z,28.3
2018-01-29T08:41:03.082Z,28.3
2018-01-29T08:42:03.090Z,28.4
2018-01-29T08:43:03.112Z,28
2018-01-29T08:44:02.853Z,28.1
2018-01-29T08:45:02.851Z,27.9
2018-01-29T08:46:03.027Z,28.1
2018-01-29T08:47:02.286Z,28.5
2018-01-29T08:48:02.410Z,28.8
2018-01-29T08:49:02.953Z,28.6
2018-01-29T08:50:02.246Z,28.8
2018-01-29T08:51:02.463Z,28.9
2018-01-29T08:52:02.209Z,29.1
2018-01-29T08:53:02.254Z,29.1
2018-01-29T08:54:02.040Z,29.1
2018-01-29T08:55:01.833Z,29.5
2018-01-29T08:56:02.319Z,29.4
2018-01-29T08:57:01.786Z,29.7
2018-01-29T08:58:02.062Z,29.6
2018-01-29T08:59:01.680Z,29.8
2018-01-29T09:00:01.991Z,29.7
2018-01-29T09:01:01.205Z,29.9
2018-01-29T09:02:01.687Z,29.9
2018-01-29T09:03:01.382Z,29.8
2018-01-29T09:04:01.724Z,30
2018-01-29T09:05:01.435Z,29.9
2018-01-29T09:06:01.731Z,30.1
2018-01-29T09:07:00.893Z,29.7
2018-01-29T09:08:01.082Z,29.6
2018-01-29T09:09:00.646Z,30.1
2018-01-29T09:10:01.223Z,30.1
2018-01-29T09:11:00.845Z,30.4
2018-01-29T09:12:00.791Z,30.1
2018-01-29T09:13:00.828Z,30.4
2018-01-29T09:14:00.698Z,30.4
2018-01-29T09:15:01.067Z,30.4
2018-01-29T09:16:00.554Z,30.5
2018-01-29T09:17:00.416Z,30.6
2018-01-29T09:18:00.533Z,30.8
2018-01-29T09:19:00.803Z,30.5
2018-01-29T09:20:00.402Z,30.5
2018-01-29T09:21:00.183Z,30.3
2018-01-29T09:21:59.995Z,30.6
2018-01-29T09:22:59.893Z,30.8
2018-01-29T09:23:59.703Z,30.7
2018-01-29T09:25:00.042Z,30.8
2018-01-29T09:26:00.376Z,30.7
2018-01-29T09:26:59.468Z,30.9
2018-01-29T09:27:59.755Z,31.1
2018-01-29T09:28:59.386Z,31.1
2018-01-29T09:29:59.825Z,31.3
2018-01-29T09:30:59.362Z,31.1
2018-01-29T09:31:59.302Z,31.2
2018-01-29T09:32:59.085Z,31.5
2018-01-29T09:33:59.252Z,31.3
2018-01-29T09:34:59.463Z,31.2
2018-01-29T09:35:59.185Z,30.9
2018-01-29T09:36:59.227Z,31
2018-01-29T09:37:59.044Z,30.8
2018-01-29T09:38:58.604Z,30.6
2018-01-29T09:39:58.982Z,30
2018-01-29T09:40:58.886Z,29.3
2018-01-29T09:41:58.464Z,29.1
2018-01-29T09:42:58.575Z,28.9
2018-01-29T09:43:58.650Z,28.6
2018-01-29T09:44:58.527Z,27.6
2018-01-29T09:45:58.251Z,27.1
2018-01-29T09:46:58.400Z,26.2
2018-01-29T09:47:58.189Z,25.5
2018-01-29T09:48:58.508Z,25.2
2018-01-29T09:49:57.763Z,24.4
2018-01-29T09:50:58.108Z,23.9
2018-01-29T09:51:57.918Z,23.7
2018-01-29T09:52:57.789Z,23.2
2018-01-29T09:53:57.645Z,22.6
2018-01-29T09:54:57.862Z,22.5
2018-01-29T09:55:57.646Z,22.2
2018-01-29T09:56:57.346Z,21.9
2018-01-29T09:57:57.477Z,21.5
2018-01-29T09:58:57.598Z,21.5
2018-01-29T09:59:57.387Z,21.4
2018-01-29T10:00:57.209Z,21.6
2018-01-29T10:01:57.165Z,21.5
2018-01-29T10:02:57.157Z,21.4
2018-01-29T10:03:57.456Z,21.1
2018-01-29T10:04:57.181Z,21.1
2018-01-29T10:05:56.918Z,21.1
2018-01-29T10:06:57.355Z,20.9
2018-01-29T10:07:57.289Z,20.9
2018-01-29T10:08:56.467Z,20.6
2018-01-29T10:09:56.728Z,20.4
2018-01-29T10:10:56.576Z,19.9
2018-01-29T10:11:56.382Z,19.8
2018-01-29T10:12:56.459Z,20.1
2018-01-29T10:13:56.359Z,20.2
2018-01-29T10:14:56.408Z,20.4
2018-01-29T10:15:56.179Z,20.5
2018-01-29T10:16:56.272Z,20.5
2018-01-29T10:17:56.134Z,20.6
2018-01-29T10:18:56.029Z,20.8
2018-01-29T10:19:56.078Z,20.6
2018-01-29T10:20:55.828Z,21
2018-01-29T10:21:55.639Z,21.3
2018-01-29T10:22:55.733Z,21.4
2018-01-29T10:23:55.681Z,21.6
2018-01-29T10:24:55.452Z,22.1
2018-01-29T10:25:55.917Z,22.4
2018-01-29T10:26:55.293Z,22.7
2018-01-29T10:27:55.417Z,23
2018-01-29T10:28:55.241Z,23.1
2018-01-29T10:29:55.365Z,23.3
2018-01-29T10:30:55.664Z,23.3
2018-01-29T10:31:55.075Z,23.6
2018-01-29T10:32:55.210Z,23.9
2018-01-29T10:33:55.040Z,24
2018-01-29T10:34:55.413Z,24.1
2018-01-29T10:35:54.744Z,24.1
2018-01-29T10:36:55.360Z,23.9
2018-01-29T10:37:55.037Z,24.1
2018-01-29T10:38:54.728Z,24.1
2018-01-29T10:39:55.179Z,24.5
2018-01-29T10:40:54.725Z,24.5
2018-01-29T10:41:54.841Z,24.6
2018-01-29T10:42:54.473Z,24.4
2018-01-29T10:43:54.752Z,24.5
2018-01-29T10:44:54.473Z,24.6
2018-01-29T10:45:54.050Z,24.3
2018-01-29T10:46:54.388Z,24.4
2018-01-29T10:47:54.251Z,24.7
2018-01-29T10:48:54.062Z,24.9
2018-01-29T10:49:54.320Z,24.8
2018-01-29T10:50:53.832Z,24.6
2018-01-29T10:51:53.936Z,24
2018-01-29T10:52:53.896Z,24.4
2018-01-29T10:53:53.758Z,24.8
2018-01-29T10:54:53.380Z,24.8
2018-01-29T10:55:53.592Z,24.8
2018-01-29T10:56:53.644Z,24.9
2018-01-29T10:57:53.342Z,24.9
2018-01-29T10:58:53.683Z,24.8
2018-01-29T10:59:53.191Z,24.8
2018-01-29T11:00:53.179Z,24.8
2018-01-29T11:01:53.730Z,24.9
2018-01-29T11:02:53.122Z,24.9
2018-01-29T11:03:52.896Z,25
2018-01-29T11:04:52.957Z,25.2
2018-01-29T11:05:52.764Z,25.3
2018-01-29T11:06:53.014Z,25.3
2018-01-29T11:07:53.135Z,25.1
2018-01-29T11:08:52.456Z,25
2018-01-29T11:09:52.724Z,24.5
2018-01-29T11:10:52.479Z,24.4
2018-01-29T11:11:52.818Z,24.3
2018-01-29T11:12:52.245Z,24.4
2018-01-29T11:13:52.423Z,24.6
2018-01-29T11:14:51.962Z,24.4
2018-01-29T11:15:52.912Z,24.1
2018-01-29T11:16:52.075Z,23.4
2018-01-29T11:17:52.349Z,23.3
2018-01-29T11:18:52.172Z,22.8
2018-01-29T11:19:51.663Z,22.8
2018-01-29T11:20:51.643Z,22.7
2018-01-29T11:21:51.929Z,22.4
2018-01-29T11:22:51.605Z,22.2
2018-01-29T11:23:51.548Z,22
2018-01-29T11:24:51.464Z,21.8
2018-01-29T11:25:51.498Z,21.8
2018-01-29T11:26:51.453Z,21.6
2018-01-29T11:27:51.455Z,21.2
2018-01-29T11:28:51.117Z,20.8
2018-01-29T11:29:51.017Z,20.4
2018-01-29T11:30:51.051Z,20.1
2018-01-29T11:31:51.095Z,19.9
2018-01-29T11:32:51.154Z,19.9
2018-01-29T11:33:50.735Z,19.8
2018-01-29T11:34:50.876Z,19.8
2018-01-29T11:35:50.762Z,19.8
2018-01-29T11:36:50.644Z,19.5
2018-01-29T11:37:50.614Z,19.3
2018-01-29T11:38:50.311Z,19.1
2018-01-29T11:39:50.530Z,18.9
2018-01-29T11:40:50.755Z,18.8
2018-01-29T11:41:50.691Z,18.5
2018-01-29T11:42:50.259Z,18.3
2018-01-29T11:43:50.467Z,18.3
2018-01-29T11:44:50.216Z,18.3
2018-01-29T11:45:50.135Z,18.3
2018-01-29T11:46:49.913Z,17.8
2018-01-29T11:47:49.878Z,17.9
2018-01-29T11:48:50.401Z,18
2018-01-29T11:49:49.628Z,18
2018-01-29T11:50:49.560Z,18.1
2018-01-29T11:51:50.118Z,18.2
2018-01-29T11:52:49.638Z,18.2
2018-01-29T11:53:49.891Z,18.1
2018-01-29T11:54:49.287Z,18.1
2018-01-29T11:55:49.373Z,18.1
2018-01-29T11:56:49.793Z,18
2018-01-29T11:57:49.079Z,17.7
2018-01-29T11:58:49.108Z,17.7
2018-01-29T11:59:49.230Z,17.8
2018-01-29T12:00:49.192Z,17.7
2018-01-29T12:01:49.330Z,17.4
2018-01-29T12:02:48.751Z,17.4
2018-01-29T12:03:48.761Z,17.3
2018-01-29T12:04:48.662Z,17.3
2018-01-29T12:05:49.417Z,17.1
2018-01-29T12:06:48.496Z,17.1
2018-01-29T12:07:48.690Z,17.1
2018-01-29T12:08:48.818Z,16.9
2018-01-29T12:09:48.446Z,16.8
2018-01-29T12:10:48.183Z,16.8
2018-01-29T12:11:48.207Z,16.6
2018-01-29T12:12:48.169Z,16.6
2018-01-29T12:13:47.974Z,16.4
2018-01-29T12:14:48.446Z,16.4
2018-01-29T12:15:48.608Z,16.3
2018-01-29T12:16:47.902Z,16.3
2018-01-29T12:17:47.982Z,15.9
2018-01-29T12:18:47.960Z,16
2018-01-29T12:19:48.094Z,15.9
2018-01-29T12:20:47.834Z,15.8
2018-01-29T12:21:47.503Z,15.7
2018-01-29T12:22:47.452Z,15.6
2018-01-29T12:23:47.288Z,15.6
2018-01-29T12:24:47.619Z,15.4
2018-01-29T12:25:47.148Z,15.4
2018-01-29T12:26:47.044Z,15.3
2018-01-29T12:27:46.886Z,15.3
2018-01-29T12:28:47.473Z,15.2
2018-01-29T12:29:46.971Z,15.1
2018-01-29T12:30:46.840Z,15.1
2018-01-29T12:31:46.820Z,15.1
2018-01-29T12:32:47.054Z,14.9
2018-01-29T12:33:47.081Z,14.8
2018-01-29T12:34:46.914Z,14.8
2018-01-29T12:35:46.442Z,14.7
2018-01-29T12:36:46.353Z,14.6
2018-01-29T12:37:46.577Z,14.6
2018-01-29T12:38:46.575Z,14.6
2018-01-29T12:39:46.638Z,14.5
2018-01-29T12:40:46.495Z,14.4
2018-01-29T12:41:46.338Z,14.4
2018-01-29T12:42:46.167Z,14.3
2018-01-29T12:43:45.879Z,14.3
2018-01-29T12:44:46.176Z,14.2
2018-01-29T12:45:45.972Z,14.1
2018-01-29T12:46:45.649Z,14.1
2018-01-29T12:47:45.685Z,13.9
2018-01-29T12:48:45.817Z,13.9
2018-01-29T12:49:45.744Z,13.9
2018-01-29T12:50:45.474Z,13.8
2018-01-29T12:51:45.334Z,13.8
2018-01-29T12:52:45.455Z,13.7
2018-01-29T12:53:45.732Z,13.6
2018-01-29T12:54:45.810Z,13.6
2018-01-29T12:55:45.156Z,13.5
2018-01-29T12:56:44.884Z,13.4
2018-01-29T12:57:44.898Z,13.5
2018-01-29T12:58:45.071Z,13.5
2018-01-29T12:59:45.504Z,13.4
2018-01-29T13:00:44.876Z,13.4
2018-01-29T13:01:44.752Z,13.4
2018-01-29T13:02:44.902Z,13.4
2018-01-29T13:03:44.828Z,13.3
2018-01-29T13:04:44.844Z,13.3
2018-01-29T13:05:44.499Z,13.3
2018-01-29T13:06:44.509Z,13.3
2018-01-29T13:07:44.622Z,13.2
2018-01-29T13:08:44.145Z,13.1
2018-01-29T13:09:44.522Z,13.1
2018-01-29T13:10:43.985Z,13.1
2018-01-29T13:11:44.603Z,13
2018-01-29T13:12:44.205Z,13
2018-01-29T13:13:44.126Z,12.9
2018-01-29T13:14:44.187Z,12.9
2018-01-29T13:16:43.831Z,12.9
2018-01-29T13:17:43.522Z,12.8
2018-01-29T13:18:43.341Z,12.8
2018-01-29T13:19:43.422Z,12.8
2018-01-29T13:20:43.388Z,12.7
2018-01-29T13:21:43.335Z,12.6
2018-01-29T13:22:43.397Z,12.7
2018-01-29T13:23:43.345Z,12.6
2018-01-29T13:24:42.982Z,12.6
2018-01-29T13:25:43.390Z,12.6
2018-01-29T13:26:43.252Z,12.6
2018-01-29T13:27:42.921Z,12.6
2018-01-29T13:28:42.510Z,12.6
2018-01-29T13:29:42.763Z,12.5
2018-01-29T13:30:42.826Z,12.5
2018-01-29T13:31:42.344Z,12.5
2018-01-29T13:32:42.463Z,12.4
2018-01-29T13:33:42.251Z,12.5
2018-01-29T13:34:42.583Z,12.4
2018-01-29T13:35:42.219Z,12.4